Decoded Metar for LEMG (MALAGA in SPAIN) (IATA:AGP) | Meteo·Mobile Aviation Weather
aviador You're here:

LEMG Decoded Metar

MALAGA in SPAIN
Report Time2019-10-21 07:00:00
UTC Time2019-10-21 07:09:59
Flight Rules vfr VFR
Wind300° at 07 kt
W.Decomp.*RWY 31: 6.9 kt HW 1.1 kt LCW
RWY 30: 7.0 kt HW 0.1 kt RCW
Visibility9999 m
Phenomena:N/A
Clouds:Few 020 Hf
Expected CloudBase > 800 ft AGL from Temp-Dew spread
CeilingNone
Temp10°C (ISA -5)
Dew Point08°C (88% RH)
AAT7.0°C
QNH1016 hPa
Density Alt-528 ft
Elevation23 ft
Report Wrong Elevation
Raw Report
METAR LEMG 210700Z 30007KT 9999 FEW020 10/08 Q1016 NOSIG=

Extra information for LEMG:More info

Metar Taf Metar & Taf Last 4 Metars F.Rules Stats Wind Profile Meteogram Temp Stats Airport Information Weather charts Add Link Nearby VenuesMetar ALERT Operation Metar Decoded Social comments